Latest Weather Observations for Alva Beach

IDQ60801

Issued at 2:35 pm EST Friday 31 October 2014 (issued every 30 minutes, with the page automatically refreshed every 10 minutes)

About weather observations | Map of weather stations | Latest weather observations for QLD | Other Formats
Station Details ID: 033295 Name: ALVA BEACH Lat: -19.46 Lon: 147.48 Height: 7.5 m
Data from the previous 72 hours. | See also: Recent months at Alva Beach
Date/Time
EST
Temp
°C
App
Temp
°C
Dew
Point
Rel
Hum
%
Delta-T
°C
Wind Press
QNH
hPa
Press
MSL
hPa
Rain
since 9 am
mm
Dir
 
Spd
km/h
Gust
km/h
Spd
kts
Gust
kts
31/02:30pm 27.4 27.7 18.7 59 5.6 ENE 15 19 8 10 1012.4 1012.4 0.0
31/02:00pm 26.6 26.4 17.7 58 5.6 NE 15 19 8 10 1012.7 1012.7 0.0
31/01:30pm 26.9 26.8 17.9 57 5.7 NE 15 20 8 11 1013.1 1013.1 0.0
31/01:00pm 27.1 27.4 17.8 56 5.9 NE 13 19 7 10 1013.4 1013.4 0.0
31/12:30pm 26.5 26.0 17.8 58 5.5 NE 17 20 9 11 1013.8 1013.8 0.0
31/12:00pm 26.9 26.8 17.9 57 5.7 NE 15 20 8 11 1014.3 1014.3 0.0
31/11:30am 27.1 26.9 18.4 59 5.5 NE 17 20 9 11 1014.7 1014.7 0.0
31/11:00am 26.9 26.6 18.2 59 5.5 NE 17 22 9 12 1015.1 1015.1 0.0
31/10:30am 27.0 26.4 17.5 56 6.0 ENE 17 20 9 11 1015.4 1015.4 0.0
31/10:00am 26.6 26.8 17.7 58 5.6 ENE 13 17 7 9 1015.4 1015.4 0.0
31/09:30am 26.3 26.1 17.6 58 5.5 E 15 20 8 11 1015.7 1015.7 0.0
31/09:00am 26.7 27.0 18.0 59 5.5 ENE 13 20 7 11 1015.7 1015.7 0.0
31/08:30am 26.3 26.3 18.2 61 5.1 NE 15 19 8 10 1015.2 1015.2 0.0
31/08:00am 25.6 25.2 18.0 63 4.8 NE 17 22 9 12 1015.0 1015.0 0.0
31/07:30am 24.6 24.1 17.8 66 4.3 NE 17 22 9 12 1014.7 1014.7 0.0
31/07:00am 24.5 23.5 18.0 67 4.1 NE 20 24 11 13 1014.3 1014.3 0.0
31/06:30am 24.0 23.0 18.0 69 3.8 NE 20 24 11 13 1013.8 1013.8 0.0
31/06:00am 23.7 23.2 19.0 75 3.0 NE 20 26 11 14 1013.5 1013.5 0.0
31/05:30am 23.4 22.7 18.3 73 3.2 NE 19 22 10 12 1013.3 1013.3 0.0
31/05:00am 23.5 22.8 18.6 74 3.1 NE 20 26 11 14 1013.2 1013.2 0.0
31/04:30am 23.3 21.6 18.0 72 3.3 NE 24 28 13 15 1012.9 1012.9 0.0
31/04:00am 23.4 21.4 18.3 73 3.2 NE 26 32 14 17 1012.7 1012.7 0.0
31/03:30am 23.6 21.7 18.5 73 3.2 NE 26 30 14 16 1012.7 1012.7 0.0
31/03:00am 23.4 21.3 18.1 72 3.3 NE 26 30 14 16 1012.5 1012.5 0.0
31/02:30am 23.4 21.4 18.3 73 3.2 NE 26 32 14 17 1012.5 1012.5 0.0
31/02:00am 23.4 20.9 18.1 72 3.3 ENE 28 32 15 17 1012.5 1012.5 0.0
31/01:30am 23.3 21.6 18.2 73 3.2 NE 24 32 13 17 1012.8 1012.8 0.0
31/01:00am 23.4 21.3 18.1 72 3.3 ENE 26 30 14 16 1013.3 1013.3 0.0
31/12:30am 23.3 21.6 18.0 72 3.3 NE 24 30 13 16 1013.5 1013.5 0.0
31/12:00am 23.7 22.7 18.8 74 3.1 NE 22 28 12 15 1013.9 1013.9 0.0
 
Date/Time
EST
Temp
°C
App
Temp
°C
Dew
Point
Rel
Hum
%
Delta-T
°C
Wind Press
QNH
hPa
Press
MSL
hPa
Rain
since 9 am
mm
Dir
 
Spd
km/h
Gust
km/h
Spd
kts
Gust
kts
30/11:30pm 23.7 23.1 18.8 74 3.1 NE 20 24 11 13 1014.1 1014.1 0.0
30/11:00pm 23.7 22.2 18.6 73 3.2 ENE 24 28 13 15 1014.1 1014.1 0.0
30/10:30pm 23.8 22.8 18.9 74 3.1 ENE 22 26 12 14 1014.2 1014.2 0.0
30/10:00pm 23.9 23.5 19.4 76 2.9 NE 20 24 11 13 1014.4 1014.4 0.0
30/09:30pm 23.8 23.3 19.1 75 3.0 ENE 20 24 11 13 1014.1 1014.1 0.0
30/09:00pm 23.9 22.8 19.4 76 2.9 NE 24 28 13 15 1013.6 1013.6 0.0
30/08:30pm 23.9 23.7 19.4 76 2.9 ENE 19 22 10 12 1013.8 1013.8 0.0
30/08:00pm 23.8 23.5 19.1 75 3.0 NE 19 24 10 13 1013.4 1013.4 0.0
30/07:30pm 24.0 23.8 19.3 75 3.0 NE 19 22 10 12 1013.3 1013.3 0.0
30/07:00pm 24.0 23.6 18.9 73 3.2 NE 19 22 10 12 1013.2 1013.2 0.0
30/06:30pm 24.2 23.7 19.1 73 3.3 NE 20 24 11 13 1012.7 1012.7 0.0
30/06:00pm 24.4 23.8 18.8 71 3.6 NE 20 22 11 12 1012.4 1012.4 0.0
30/05:30pm 24.6 24.0 18.5 69 3.9 NE 19 22 10 12 1012.2 1012.2 0.0
30/05:00pm 24.9 24.6 18.3 66 4.2 NE 17 22 9 12 1012.2 1012.2 0.0
30/04:30pm 25.1 24.3 18.1 65 4.4 NNE 19 20 10 11 1012.1 1012.1 0.0
30/04:00pm 25.3 24.7 18.5 66 4.3 NE 19 22 10 12 1012.0 1012.0 0.0
30/03:30pm 25.6 25.4 18.5 65 4.5 NNE 17 20 9 11 1012.0 1012.0 0.0
30/03:00pm 26.1 26.1 18.2 61 5.0 NNE 15 20 8 11 1012.2 1012.2 0.0
30/02:30pm 26.1 25.8 18.2 61 5.0 NNE 17 20 9 11 1012.4 1012.4 0.0
30/02:00pm 26.3 25.6 18.2 61 5.1 NNE 19 22 10 12 1012.5 1012.5 0.0
30/01:30pm 25.9 25.1 18.1 62 4.9 NNE 19 22 10 12 1012.6 1012.6 0.0
30/01:00pm 26.3 25.3 17.6 58 5.5 NNE 19 24 10 13 1013.0 1013.0 0.0
30/12:30pm 26.7 25.7 18.8 62 5.1 NNE 22 28 12 15 1013.4 1013.4 0.0
30/12:00pm 26.2 25.0 19.3 65 4.4 NNE 24 30 13 16 1013.7 1013.7 0.0
30/11:30am 26.3 25.7 19.7 67 4.3 NE 22 33 12 18 1014.0 1014.0 0.0
30/11:00am 26.1 24.1 18.2 61 5.0 NE 26 32 14 17 1014.0 1014.0 0.0
30/10:30am 26.6 24.9 18.2 60 5.3 NE 24 30 13 16 1014.1 1014.1 0.0
30/10:00am 27.0 24.8 18.6 60 5.4 NE 28 32 15 17 1014.3 1014.3 0.0
30/09:30am 26.1 23.1 17.7 60 5.3 ENE 30 33 16 18 1014.4 1014.4 0.0
30/09:00am 25.9 23.3 18.6 64 4.6 ENE 30 33 16 18 1014.8 1014.8 0.0
30/08:30am 25.7 25.1 18.4 64 4.6 E 19 24 10 13 1015.4 1015.4 0.0
30/08:00am 25.7 26.8 17.9 62 4.9 ESE 9 17 5 9 1015.7 1015.7 0.0
30/07:30am 24.2 25.4 18.2 69 3.8 S 9 15 5 8 1015.8 1015.8 0.0
30/07:00am 22.9 24.6 18.4 76 2.8 S 7 13 4 7 1015.7 1015.7 0.0
30/06:30am 21.6 23.1 19.0 85 1.6 S 9 13 5 7 1015.4 1015.4 0.0
30/06:00am 20.7 22.2 18.8 89 1.2 S 9 15 5 8 1015.2 1015.2 0.0
30/05:30am 20.6 22.1 18.0 85 1.6 SSW 7 11 4 6 1014.7 1014.7 0.0
30/05:00am 21.3 22.8 18.1 82 2.0 S 7 9 4 5 1014.5 1014.5 0.0
30/04:30am 21.9 23.5 17.9 78 2.5 SW 6 9 3 5 1014.2 1014.2 0.0
30/04:00am 22.8 23.7 18.3 76 2.8 N 11 15 6 8 1013.0 1013.0 0.0
30/03:30am 23.0 23.6 18.5 76 2.8 N 13 19 7 10 1012.7 1012.7 0.0
30/03:00am 23.1 22.7 18.8 77 2.7 N 19 24 10 13 1012.3 1012.3 0.0
30/02:30am 23.0 22.5 18.7 77 2.7 N 19 22 10 12 1012.3 1012.3 0.0
30/02:00am 23.1 23.5 19.1 78 2.5 N 15 20 8 11 1012.5 1012.5 0.0
30/01:30am 23.2 23.3 19.1 78 2.6 N 17 19 9 10 1012.5 1012.5 0.0
30/01:00am 23.1 23.6 19.3 79 2.4 N 15 19 8 10 1012.7 1012.7 0.0
30/12:30am 23.2 23.6 19.1 78 2.6 N 15 20 8 11 1013.0 1013.0 0.0
30/12:00am 23.4 24.6 19.8 80 2.3 N 13 17 7 9 1013.4 1013.4 0.0
 
Date/Time
EST
Temp
°C
App
Temp
°C
Dew
Point
Rel
Hum
%
Delta-T
°C
Wind Press
QNH
hPa
Press
MSL
hPa
Rain
since 9 am
mm
Dir
 
Spd
km/h
Gust
km/h
Spd
kts
Gust
kts
29/11:30pm 23.2 24.5 19.4 79 2.4 N 11 17 6 9 1013.6 1013.6 0.0
29/11:00pm 23.2 22.9 19.1 78 2.6 NNE 19 22 10 12 1013.5 1013.5 0.0
29/10:30pm 23.3 23.0 19.2 78 2.6 N 19 22 10 12 1013.7 1013.7 0.0
29/10:00pm 23.5 23.1 19.0 76 2.9 N 19 24 10 13 1013.8 1013.8 0.0
29/09:30pm 23.5 22.6 19.0 76 2.9 N 22 28 12 15 1013.4 1013.4 0.0
29/09:00pm 23.4 23.0 18.9 76 2.9 N 19 22 10 12 1013.4 1013.4 0.0
29/08:30pm 23.6 23.2 19.3 77 2.7 N 20 24 11 13 1013.2 1013.2 0.0
29/08:00pm 23.6 23.0 18.9 75 3.0 N 20 24 11 13 1013.3 1013.3 0.0
29/07:30pm 23.7 23.2 18.6 73 3.2 N 19 22 10 12 1013.1 1013.1 0.0
29/07:00pm 23.9 23.1 18.5 72 3.4 N 20 24 11 13 1012.9 1012.9 0.0
29/06:30pm 24.0 23.5 18.6 72 3.4 N 19 22 10 12 1012.8 1012.8 0.0
29/06:00pm 24.2 23.7 18.6 71 3.5 N 19 22 10 12 1012.6 1012.6 0.0
29/05:30pm 24.5 24.3 18.4 69 3.9 N 17 24 9 13 1012.3 1012.3 0.0
29/05:00pm 24.9 24.4 18.6 68 4.0 N 19 26 10 14 1012.2 1012.2 0.0
29/04:30pm 25.5 25.1 18.9 67 4.2 N 19 24 10 13 1012.1 1012.1 0.0
29/04:00pm 25.9 25.7 18.6 64 4.6 N 17 22 9 12 1012.2 1012.2 0.0
29/03:30pm 25.7 24.9 18.1 63 4.8 N 19 24 10 13 1012.1 1012.1 0.0
29/03:00pm 26.3 25.7 18.9 63 4.7 N 20 28 11 15 1012.1 1012.1 0.0
29/02:30pm 26.3 25.4 18.2 61 5.1 N 20 26 11 14 1012.5 1012.5 0.0
29/02:00pm 26.9 26.2 18.7 60 5.2 N 20 24 11 13 1012.9 1012.9 0.0
29/01:30pm 26.2 24.8 18.8 63 4.7 NNE 24 28 13 15 1013.0 1013.0 0.0
29/01:00pm 26.4 25.4 18.0 60 5.3 N 20 26 11 14 1013.3 1013.3 0.0
29/12:30pm 26.8 25.3 17.8 57 5.7 N 22 26 12 14 1013.4 1013.4 0.0
29/12:00pm 26.9 26.0 18.2 59 5.5 N 20 26 11 14 1013.8 1013.8 0.0
29/11:30am 26.5 25.3 17.6 58 5.6 N 20 24 11 13 1014.1 1014.1 0.0
29/11:00am 26.8 25.9 17.8 57 5.7 NNE 19 24 10 13 1014.4 1014.4 0.0
29/10:30am 26.4 26.0 18.0 60 5.3 NNE 17 22 9 12 1014.6 1014.6 0.0
29/10:00am 25.9 25.8 17.8 61 5.1 NNE 15 20 8 11 1014.8 1014.8 0.0
29/09:30am 26.4 26.7 18.0 60 5.3 NNE 13 17 7 9 1014.8 1014.8 0.0
29/09:00am 26.1 26.1 18.2 61 5.0 NNE 15 19 8 10 1014.7 1014.7 0.0
29/08:30am 25.3 25.8 17.5 62 4.9 NE 11 15 6 8 1014.8 1014.8 0.0
29/08:00am 25.2 26.6 17.7 63 4.7 NNE 7 11 4 6 1014.8 1014.8 0.0
29/07:30am 24.8 26.1 17.5 64 4.6 NNE 7 11 4 6 1014.5 1014.5 0.0
29/07:00am 23.8 25.4 17.8 69 3.7 NE 6 9 3 5 1014.4 1014.4 0.0
29/06:30am 23.3 24.9 18.2 73 3.2 NE 7 11 4 6 1014.2 1014.2 0.0
29/06:00am 21.9 22.8 18.5 81 2.1 NNE 11 13 6 7 1013.5 1013.5 0.0
29/05:30am 21.3 24.1 17.9 81 2.1 CALM 0 0 0 0 1013.3 1013.3 0.0
29/05:00am 21.8 24.6 18.0 79 2.4 CALM 0 0 0 0 1013.2 1013.2 0.0
29/04:30am 22.2 23.8 18.2 78 2.5 NNW 7 13 4 7 1012.5 1012.5 0.0
29/04:00am 22.0 23.1 18.0 78 2.5 NNW 9 13 5 7 1012.2 1012.2 0.0
29/03:30am 22.1 23.2 17.9 77 2.6 NNW 9 13 5 7 1012.0 1012.0 0.0
29/03:00am 22.6 23.2 18.6 78 2.5 N 13 19 7 10 1011.8 1011.8 0.0
29/02:30am 22.6 22.4 18.4 77 2.6 N 17 20 9 11 1012.0 1012.0 0.0
29/02:00am 22.7 22.5 18.5 77 2.6 N 17 20 9 11 1012.1 1012.1 0.0
29/01:30am 22.8 22.6 18.6 77 2.6 N 17 24 9 13 1012.1 1012.1 0.0
29/01:00am 22.8 22.5 18.3 76 2.8 N 17 22 9 12 1012.5 1012.5 0.0
29/12:30am 22.9 22.2 18.2 75 2.9 N 19 24 10 13 1012.8 1012.8 0.0
29/12:00am 23.0 22.7 18.3 75 2.9 N 17 22 9 12 1013.2 1013.2 0.0
 
Date/Time
EST
Temp
°C
App
Temp
°C
Dew
Point
Rel
Hum
%
Delta-T
°C
Wind Press
QNH
hPa
Press
MSL
hPa
Rain
since 9 am
mm
Dir
 
Spd
km/h
Gust
km/h
Spd
kts
Gust
kts
28/11:30pm 22.8 22.4 18.1 75 2.9 N 17 24 9 13 1013.4 1013.4 0.0
28/11:00pm 22.9 22.9 18.2 75 2.9 N 15 20 8 11 1013.6 1013.6 0.0
28/10:30pm 23.0 22.6 18.1 74 3.1 N 17 20 9 11 1013.7 1013.7 0.0
28/10:00pm 23.0 22.3 18.3 75 2.9 N 19 24 10 13 1013.7 1013.7 0.0
28/09:30pm 23.0 23.4 18.1 74 3.1 N 13 20 7 11 1013.8 1013.8 0.0
28/09:00pm 23.0 24.1 18.1 74 3.1 N 9 15 5 8 1013.8 1013.8 0.0
28/08:30pm 23.1 24.3 18.2 74 3.1 N 9 15 5 8 1013.8 1013.8 0.0
28/08:00pm 23.2 24.0 18.1 73 3.2 N 11 19 6 10 1013.6 1013.6 0.0
28/07:30pm 23.2 23.5 17.9 72 3.3 N 13 19 7 10 1013.3 1013.3 0.0
28/07:00pm 23.5 23.2 18.2 72 3.3 N 17 24 9 13 1013.2 1013.2 0.0
28/06:30pm 23.7 23.7 18.1 71 3.5 N 15 20 8 11 1013.0 1013.0 0.0
28/06:00pm 23.9 23.8 17.9 69 3.8 N 15 20 8 11 1012.9 1012.9 0.0
28/05:30pm 24.3 23.4 17.8 67 4.1 N 19 24 10 13 1012.6 1012.6 0.0
28/05:00pm 24.6 23.4 17.6 65 4.4 N 20 24 11 13 1012.3 1012.3 0.0
28/04:30pm 24.9 23.5 16.9 61 4.9 N 20 26 11 14 1012.4 1012.4 0.0
28/04:00pm 25.6 24.6 18.0 63 4.8 N 20 24 11 13 1012.3 1012.3 0.0
28/03:30pm 25.5 24.3 17.4 61 5.1 NNE 20 24 11 13 1012.3 1012.3 0.0
28/03:00pm 25.8 24.7 17.4 59 5.2 NNE 19 24 10 13 1012.3 1012.3 0.0

Other Formats:

Comma delimited format used in spreadsheet applications
http://www.bom.gov.au/fwo/IDQ60801/IDQ60801.95296.axf

JavaScript Object Notation format (JSON) in row-major order
http://www.bom.gov.au/fwo/IDQ60801/IDQ60801.95296.json